Time;durP1;ratioP1;P1;durP2;ratioP2;P2;SDS_P1;SDS_P2;PMS_P1;PMS_P2;Temp;Humidity;BMP_temperature;BMP_pressure;BME280_temperature;BME280_humidity;BME280_pressure;Samples;Min_cycle;Max_cycle;Signal;HPM_P1;HPM_P2
2023/09/30 00:01:26;;;;;;;20.20;12.65;;;15.90;99.90;;;;;;4968338;28;20203;-81
2023/09/30 00:03:54;;;;;;;20.38;13.10;;;15.80;99.90;;;;;;4951527;28;20575;-81
2023/09/30 00:06:22;;;;;;;18.40;12.60;;;15.90;99.90;;;;;;4969647;28;20231;-80
2023/09/30 00:08:50;;;;;;;22.23;12.10;;;15.90;99.90;;;;;;4969706;28;20192;-81
2023/09/30 00:11:18;;;;;;;20.83;12.18;;;15.90;99.90;;;;;;4969702;28;20234;-81
2023/09/30 00:13:46;;;;;;;19.38;13.13;;;15.80;99.90;;;;;;4969592;28;20188;-81
2023/09/30 00:16:13;;;;;;;16.67;12.35;;;15.80;99.90;;;;;;4968945;28;20242;-81
2023/09/30 00:18:41;;;;;;;18.38;12.45;;;15.70;99.90;;;;;;4969862;28;20267;-81
2023/09/30 00:21:09;;;;;;;17.88;11.65;;;15.70;99.90;;;;;;4969641;28;20188;-82
2023/09/30 00:23:36;;;;;;;24.00;13.57;;;15.70;99.90;;;;;;4968972;28;20192;-80
2023/09/30 00:26:05;;;;;;;17.98;13.07;;;15.80;99.90;;;;;;4962682;28;20203;-81
2023/09/30 00:28:32;;;;;;;20.15;13.18;;;15.70;99.90;;;;;;4958202;28;20227;-80
2023/09/30 00:31:00;;;;;;;23.27;15.23;;;15.70;99.90;;;;;;4951714;28;20251;-81
2023/09/30 00:33:27;;;;;;;18.02;12.52;;;15.70;99.90;;;;;;4934350;28;20283;-81
2023/09/30 00:35:55;;;;;;;18.38;12.38;;;15.70;99.90;;;;;;4969309;28;20211;-81
2023/09/30 00:38:23;;;;;;;21.25;13.30;;;15.70;99.90;;;;;;4969174;28;20199;-80
2023/09/30 00:40:51;;;;;;;18.45;12.80;;;15.40;99.90;;;;;;4969711;28;20199;-81
2023/09/30 00:43:20;;;;;;;21.85;12.60;;;15.50;99.90;;;;;;4969172;28;20262;-80
2023/09/30 00:46:06;;;;;;;21.77;12.85;;;15.60;99.90;;;;;;4952054;28;20214;-81
2023/09/30 00:48:34;;;;;;;24.08;13.13;;;15.60;99.90;;;;;;4959591;28;20658;-80
2023/09/30 00:51:03;;;;;;;20.17;13.23;;;15.60;99.90;;;;;;4952240;28;20216;-81
2023/09/30 00:53:31;;;;;;;19.58;12.95;;;15.50;99.90;;;;;;4946012;28;20220;-81
2023/09/30 00:55:59;;;;;;;19.67;13.23;;;15.40;99.90;;;;;;4967972;28;20574;-81
2023/09/30 00:58:28;;;;;;;24.30;13.73;;;15.40;99.90;;;;;;4968442;28;20666;-81
2023/09/30 01:00:59;;;;;;;17.27;12.93;;;15.40;99.90;;;;;;4952108;28;20202;-81
2023/09/30 01:03:27;;;;;;;16.83;12.57;;;15.30;99.90;;;;;;4969346;28;20192;-81
2023/09/30 01:05:54;;;;;;;19.10;12.65;;;15.40;99.90;;;;;;4969202;28;20191;-80
2023/09/30 01:08:23;;;;;;;20.25;12.65;;;15.40;99.90;;;;;;4969574;28;20204;-81
2023/09/30 01:10:50;;;;;;;20.80;12.40;;;15.40;99.90;;;;;;4968938;28;20212;-82
2023/09/30 01:13:18;;;;;;;19.45;12.55;;;15.50;99.90;;;;;;4969051;28;20682;-80
2023/09/30 01:15:47;;;;;;;20.58;12.55;;;15.40;99.90;;;;;;4935911;28;20599;-81
2023/09/30 01:18:15;;;;;;;22.58;14.02;;;15.40;99.90;;;;;;4968927;28;20195;-81
2023/09/30 01:20:43;;;;;;;23.00;13.15;;;15.40;99.90;;;;;;4969558;28;20204;-81
2023/09/30 01:23:11;;;;;;;20.80;12.25;;;15.40;99.90;;;;;;4969528;28;20622;-81
2023/09/30 01:25:39;;;;;;;19.70;12.48;;;15.40;99.90;;;;;;4969399;28;20198;-81
2023/09/30 01:28:10;;;;;;;19.73;12.27;;;15.40;99.90;;;;;;4969088;28;20279;-81
2023/09/30 01:30:37;;;;;;;21.30;13.20;;;15.30;99.90;;;;;;4951422;28;20224;-81
2023/09/30 01:33:07;;;;;;;20.02;12.52;;;15.10;99.90;;;;;;4969583;28;20188;-82
2023/09/30 01:35:35;;;;;;;19.42;12.00;;;15.20;99.90;;;;;;4967127;28;20188;-82
2023/09/30 01:38:04;;;;;;;19.00;12.30;;;15.30;99.90;;;;;;4951429;28;20283;-81
2023/09/30 01:40:32;;;;;;;20.25;11.98;;;15.30;99.90;;;;;;4968865;28;20694;-81
2023/09/30 01:43:00;;;;;;;24.70;13.80;;;15.30;99.90;;;;;;4968754;28;20188;-81
2023/09/30 01:45:28;;;;;;;18.08;12.20;;;15.30;99.90;;;;;;4968914;28;20192;-82
2023/09/30 01:47:55;;;;;;;18.67;12.02;;;15.20;99.90;;;;;;4951442;28;20251;-81
2023/09/30 01:50:23;;;;;;;17.33;11.65;;;15.20;99.90;;;;;;4949883;28;20222;-81
2023/09/30 01:52:51;;;;;;;19.33;12.38;;;15.30;99.90;;;;;;4972196;28;20187;-81
2023/09/30 01:55:18;;;;;;;18.05;12.07;;;15.30;99.90;;;;;;4951442;28;20690;-80
2023/09/30 01:57:46;;;;;;;21.88;12.93;;;15.30;99.90;;;;;;4938646;28;20212;-81
2023/09/30 02:00:14;;;;;;;18.27;12.68;;;15.30;99.90;;;;;;4971024;28;20199;-81
2023/09/30 02:02:42;;;;;;;20.42;14.10;;;15.20;99.90;;;;;;4954442;28;20191;-80
2023/09/30 02:05:10;;;;;;;17.25;12.13;;;15.20;99.90;;;;;;4972262;28;20707;-81
2023/09/30 02:07:37;;;;;;;18.58;13.25;;;15.10;99.90;;;;;;4972392;28;20192;-81
2023/09/30 02:10:06;;;;;;;25.48;14.40;;;15.10;99.90;;;;;;4954557;28;20195;-81
2023/09/30 02:12:33;;;;;;;20.63;13.80;;;14.90;99.90;;;;;;4971997;28;20506;-80
2023/09/30 02:15:03;;;;;;;19.45;12.20;;;15.00;99.90;;;;;;4971902;28;20191;-81
2023/09/30 02:17:32;;;;;;;22.70;14.27;;;15.10;99.90;;;;;;4954311;28;20224;-80
2023/09/30 02:20:01;;;;;;;19.23;12.48;;;15.10;99.90;;;;;;4971774;28;20250;-81
2023/09/30 02:22:30;;;;;;;15.55;11.55;;;15.20;99.90;;;;;;4971715;28;20196;-80
2023/09/30 02:24:58;;;;;;;20.63;13.25;;;15.20;99.90;;;;;;4971463;28;20180;-80
2023/09/30 02:27:27;;;;;;;21.15;12.88;;;15.20;99.90;;;;;;4952999;28;20279;-81
2023/09/30 02:29:55;;;;;;;17.67;12.25;;;15.20;99.90;;;;;;4971355;28;22253;-81
2023/09/30 02:32:24;;;;;;;21.10;14.48;;;15.20;99.90;;;;;;4971479;28;20282;-80
2023/09/30 02:34:53;;;;;;;24.20;13.70;;;15.10;99.90;;;;;;4970759;28;20693;-81
2023/09/30 02:37:21;;;;;;;25.88;14.57;;;15.00;99.90;;;;;;4971950;28;20291;-81
2023/09/30 02:39:48;;;;;;;22.15;14.75;;;14.90;99.90;;;;;;4971616;28;20569;-81
2023/09/30 02:42:16;;;;;;;19.50;12.95;;;14.90;99.90;;;;;;4971628;28;20294;-80
2023/09/30 02:44:43;;;;;;;20.35;12.77;;;14.90;99.90;;;;;;4954217;28;20204;-81
2023/09/30 02:47:11;;;;;;;22.17;12.82;;;14.90;99.90;;;;;;4952942;28;20219;-80
2023/09/30 02:49:39;;;;;;;18.95;12.77;;;15.00;99.90;;;;;;4960911;28;20226;-81
2023/09/30 02:52:07;;;;;;;16.75;11.85;;;15.00;99.90;;;;;;4970950;28;20239;-80
2023/09/30 02:54:34;;;;;;;18.70;11.93;;;15.00;99.90;;;;;;4970964;28;20621;-81
2023/09/30 02:57:03;;;;;;;19.45;12.93;;;15.00;99.90;;;;;;4970897;28;20271;-81
2023/09/30 02:59:31;;;;;;;21.52;12.13;;;15.00;99.90;;;;;;4970740;28;20184;-82
2023/09/30 03:01:58;;;;;;;17.85;12.25;;;15.00;99.90;;;;;;4953182;28;20204;-81
2023/09/30 03:04:28;;;;;;;16.92;11.68;;;15.10;99.90;;;;;;4953703;28;20191;-80
2023/09/30 03:06:56;;;;;;;21.35;12.63;;;15.10;99.90;;;;;;4953361;28;20603;-81
2023/09/30 03:09:23;;;;;;;16.95;11.38;;;15.10;99.90;;;;;;4950830;29;20204;-81
2023/09/30 03:11:51;;;;;;;18.63;13.05;;;15.00;99.90;;;;;;4970436;28;20204;-81
2023/09/30 03:14:19;;;;;;;17.88;12.32;;;15.00;99.90;;;;;;4970657;28;20194;-81
2023/09/30 03:16:46;;;;;;;18.08;11.63;;;15.00;99.90;;;;;;4970387;28;20187;-80
2023/09/30 03:19:16;;;;;;;18.80;12.20;;;15.00;99.90;;;;;;4953254;28;20192;-81
2023/09/30 03:21:43;;;;;;;18.25;11.82;;;15.00;99.90;;;;;;4970494;28;20658;-81
2023/09/30 03:24:12;;;;;;;16.50;11.45;;;15.00;99.90;;;;;;4971085;28;20195;-81
2023/09/30 03:26:41;;;;;;;16.45;11.38;;;15.00;99.90;;;;;;4969304;28;20566;-81
2023/09/30 03:29:09;;;;;;;19.63;12.70;;;14.90;99.90;;;;;;4963573;28;20188;-80
2023/09/30 03:31:36;;;;;;;18.08;11.38;;;14.90;99.90;;;;;;4968708;28;20259;-80
2023/09/30 03:34:05;;;;;;;17.27;11.60;;;14.80;99.90;;;;;;4970268;28;20310;-81
2023/09/30 03:36:33;;;;;;;21.13;12.60;;;14.90;99.90;;;;;;4952553;28;20180;-81
2023/09/30 03:39:08;;;;;;;17.15;12.05;;;14.80;99.90;;;;;;4953084;28;20188;-81
2023/09/30 03:41:36;;;;;;;19.20;11.68;;;14.90;99.90;;;;;;4965615;28;20199;-81
2023/09/30 03:44:04;;;;;;;20.50;12.48;;;14.80;99.90;;;;;;4936691;28;20662;-81
2023/09/30 03:46:32;;;;;;;20.20;12.05;;;14.90;99.90;;;;;;4952451;28;20226;-82
2023/09/30 03:49:00;;;;;;;21.10;13.50;;;14.90;99.90;;;;;;4952742;28;20192;-83
2023/09/30 03:51:27;;;;;;;20.20;11.95;;;14.80;99.90;;;;;;4970398;28;20286;-82
2023/09/30 03:53:55;;;;;;;19.80;12.20;;;14.80;99.90;;;;;;4970100;28;20672;-82
2023/09/30 03:56:23;;;;;;;23.27;13.52;;;14.70;99.90;;;;;;4970339;28;20187;-81
2023/09/30 03:58:52;;;;;;;19.17;12.13;;;14.40;99.90;;;;;;4952858;28;20191;-81
2023/09/30 04:01:20;;;;;;;19.95;12.77;;;14.40;99.90;;;;;;4969997;28;20283;-81
2023/09/30 04:03:47;;;;;;;20.85;11.95;;;14.50;99.90;;;;;;4968270;28;20616;-80
2023/09/30 04:06:15;;;;;;;21.73;12.50;;;14.60;99.90;;;;;;4969879;28;21065;-81
2023/09/30 04:08:43;;;;;;;21.30;12.88;;;14.60;99.90;;;;;;4969708;28;20191;-81
2023/09/30 04:11:16;;;;;;;22.63;13.35;;;14.60;99.90;;;;;;4952231;28;20257;-81
2023/09/30 04:13:47;;;;;;;22.65;12.70;;;14.60;99.90;;;;;;4968551;28;20199;-80
2023/09/30 04:16:15;;;;;;;19.08;12.98;;;14.50;99.90;;;;;;4964705;28;20195;-80
2023/09/30 04:18:42;;;;;;;19.00;12.82;;;14.30;99.90;;;;;;4969562;28;20214;-81
2023/09/30 04:21:11;;;;;;;21.17;14.13;;;14.30;99.90;;;;;;4936338;28;20200;-81
2023/09/30 04:23:39;;;;;;;23.02;14.38;;;14.30;99.90;;;;;;4970046;28;20568;-82
2023/09/30 04:26:09;;;;;;;20.73;13.82;;;14.30;99.90;;;;;;4967796;28;20199;-80
2023/09/30 04:28:37;;;;;;;22.00;13.05;;;14.30;99.90;;;;;;4969532;28;20198;-81
2023/09/30 04:31:07;;;;;;;21.65;14.60;;;14.30;99.90;;;;;;4938721;29;20233;-80
2023/09/30 04:33:35;;;;;;;18.65;13.13;;;14.40;99.90;;;;;;4924895;29;20198;-80
2023/09/30 04:36:05;;;;;;;18.67;12.30;;;14.40;99.90;;;;;;4914371;29;20194;-80
2023/09/30 04:38:32;;;;;;;21.67;13.07;;;14.50;99.90;;;;;;4929664;29;20197;-80
2023/09/30 04:41:00;;;;;;;15.93;11.63;;;14.50;99.90;;;;;;4931636;29;20185;-80
2023/09/30 04:43:38;;;;;;;18.83;11.93;;;14.50;99.90;;;;;;4928709;29;20272;-79
2023/09/30 04:46:12;;;;;;;21.98;13.20;;;14.50;99.90;;;;;;4923963;29;20200;-79
2023/09/30 04:48:41;;;;;;;20.92;13.70;;;14.40;99.90;;;;;;4926803;29;20846;-80
2023/09/30 04:51:09;;;;;;;19.67;12.95;;;14.40;99.90;;;;;;4929321;29;20189;-81
2023/09/30 04:53:41;;;;;;;17.08;11.95;;;14.40;99.90;;;;;;4929960;29;20200;-79
2023/09/30 04:56:16;;;;;;;21.75;13.77;;;14.50;99.90;;;;;;4918224;29;20616;-81
2023/09/30 04:58:43;;;;;;;19.85;12.65;;;14.40;99.90;;;;;;4943527;29;20285;-81
2023/09/30 05:01:12;;;;;;;21.20;12.35;;;14.20;99.90;;;;;;4928780;29;20680;-80
2023/09/30 05:03:39;;;;;;;19.40;12.18;;;14.20;99.90;;;;;;4929205;29;20245;-81
2023/09/30 05:06:08;;;;;;;21.42;13.77;;;14.20;99.90;;;;;;4928389;29;20644;-80
2023/09/30 05:08:36;;;;;;;22.90;13.70;;;14.20;99.90;;;;;;4929661;29;20268;-81
2023/09/30 05:11:05;;;;;;;19.50;12.68;;;14.20;99.90;;;;;;4930757;29;20213;-80
2023/09/30 05:13:34;;;;;;;19.92;13.65;;;14.30;99.90;;;;;;4929508;29;20192;-81
2023/09/30 05:16:01;;;;;;;18.45;12.77;;;14.20;99.90;;;;;;4929647;29;20205;-82
2023/09/30 05:18:29;;;;;;;20.00;13.57;;;14.10;99.90;;;;;;4928745;29;20234;-81
2023/09/30 05:20:57;;;;;;;22.17;14.40;;;14.20;99.90;;;;;;4930730;29;20189;-80
2023/09/30 05:23:25;;;;;;;19.70;12.48;;;14.10;99.90;;;;;;4927041;29;20268;-81
2023/09/30 05:25:55;;;;;;;21.80;12.35;;;14.10;99.90;;;;;;4932455;29;20195;-80
2023/09/30 05:28:23;;;;;;;19.88;12.25;;;14.00;99.90;;;;;;4934274;29;20274;-80
2023/09/30 05:30:50;;;;;;;21.15;13.15;;;14.10;99.90;;;;;;4948059;28;20232;-80
2023/09/30 05:33:18;;;;;;;24.23;13.48;;;14.10;99.90;;;;;;4972219;28;20757;-81
2023/09/30 05:35:46;;;;;;;21.13;14.43;;;14.20;99.90;;;;;;4972741;28;20196;-81
2023/09/30 05:38:14;;;;;;;22.90;13.85;;;14.10;99.90;;;;;;4972629;28;20206;-82
2023/09/30 05:40:43;;;;;;;23.38;14.27;;;14.10;99.90;;;;;;4972550;28;20183;-83
2023/09/30 05:43:13;;;;;;;20.45;13.52;;;14.20;99.90;;;;;;4972555;28;20199;-83
2023/09/30 05:45:49;;;;;;;19.70;13.52;;;14.20;99.90;;;;;;4964140;28;20216;-83
2023/09/30 05:48:17;;;;;;;23.10;14.32;;;14.20;99.90;;;;;;4972317;28;20274;-82
2023/09/30 05:50:45;;;;;;;19.70;13.07;;;14.20;99.90;;;;;;4972968;28;20274;-82
2023/09/30 05:53:13;;;;;;;21.98;13.25;;;14.30;99.90;;;;;;4955356;28;20294;-82
2023/09/30 05:55:42;;;;;;;20.95;13.95;;;14.20;99.90;;;;;;4972540;28;20713;-83
2023/09/30 05:58:13;;;;;;;20.90;13.02;;;14.20;99.90;;;;;;4955105;28;20223;-82
2023/09/30 06:00:41;;;;;;;20.63;13.75;;;14.00;99.90;;;;;;4969568;28;20708;-81
2023/09/30 06:03:12;;;;;;;22.52;14.13;;;14.00;99.90;;;;;;4970581;28;20196;-82
2023/09/30 06:05:41;;;;;;;19.75;12.88;;;14.00;99.90;;;;;;4943253;28;20200;-83
2023/09/30 06:08:16;;;;;;;21.35;13.70;;;14.10;99.90;;;;;;4972096;28;20553;-82
2023/09/30 06:10:43;;;;;;;22.38;14.00;;;14.10;99.90;;;;;;4971622;28;20195;-82
2023/09/30 06:13:12;;;;;;;24.20;13.80;;;14.10;99.90;;;;;;4954795;28;20290;-82
2023/09/30 06:15:43;;;;;;;23.92;14.77;;;14.00;99.90;;;;;;4971972;28;20187;-83
2023/09/30 06:18:13;;;;;;;21.08;14.07;;;14.10;99.90;;;;;;4971792;28;20274;-82
2023/09/30 06:20:41;;;;;;;22.42;14.52;;;14.00;99.90;;;;;;4971634;28;20618;-81
2023/09/30 06:23:09;;;;;;;21.58;14.40;;;13.90;99.90;;;;;;4971455;28;20246;-82
2023/09/30 06:25:39;;;;;;;19.58;13.38;;;13.90;99.90;;;;;;4971202;28;20238;-82
2023/09/30 06:28:08;;;;;;;26.00;13.93;;;14.00;99.90;;;;;;4971472;28;20284;-82
2023/09/30 06:30:36;;;;;;;22.45;14.10;;;14.00;99.90;;;;;;4950909;29;20609;-82
2023/09/30 06:33:04;;;;;;;26.42;14.90;;;13.90;99.90;;;;;;4962902;28;20266;-81
2023/09/30 06:35:44;;;;;;;19.85;14.25;;;13.80;99.90;;;;;;4971049;28;20180;-82
2023/09/30 06:38:12;;;;;;;22.75;13.70;;;13.90;99.90;;;;;;4971635;28;20196;-82
2023/09/30 06:40:42;;;;;;;27.27;15.38;;;14.00;99.90;;;;;;4971872;28;20188;-83
2023/09/30 06:43:10;;;;;;;20.83;13.93;;;14.00;99.90;;;;;;4971904;28;20199;-83
2023/09/30 06:45:41;;;;;;;25.08;15.05;;;14.10;99.90;;;;;;4971563;28;20239;-81
2023/09/30 06:48:12;;;;;;;24.48;13.80;;;14.00;99.90;;;;;;4971779;28;20191;-82
2023/09/30 06:50:45;;;;;;;22.80;14.77;;;14.00;99.90;;;;;;4971164;28;20259;-81
2023/09/30 06:53:13;;;;;;;23.98;14.80;;;13.90;99.90;;;;;;4953910;28;20738;-82
2023/09/30 06:55:41;;;;;;;21.52;14.48;;;13.90;99.90;;;;;;4962780;28;20180;-83
2023/09/30 06:58:10;;;;;;;24.73;16.23;;;14.00;99.90;;;;;;4951810;28;20308;-82
2023/09/30 07:00:40;;;;;;;25.45;14.60;;;14.00;99.90;;;;;;4964322;28;20619;-82
2023/09/30 07:03:09;;;;;;;23.67;15.13;;;14.00;99.90;;;;;;4963416;28;20199;-82
2023/09/30 07:05:37;;;;;;;24.05;13.80;;;14.00;99.90;;;;;;4953912;28;20196;-81
2023/09/30 07:08:05;;;;;;;23.55;14.80;;;14.00;99.90;;;;;;4970789;28;20195;-82
2023/09/30 07:10:32;;;;;;;21.33;14.10;;;14.10;99.90;;;;;;4970651;28;20192;-82
2023/09/30 07:13:03;;;;;;;24.27;14.85;;;14.10;99.90;;;;;;4970452;28;20706;-82
2023/09/30 07:15:31;;;;;;;26.27;14.63;;;14.20;99.90;;;;;;4952850;28;20286;-81
2023/09/30 07:17:58;;;;;;;20.33;14.70;;;14.10;99.90;;;;;;4952555;28;20199;-81
2023/09/30 07:20:26;;;;;;;20.15;14.10;;;14.20;99.90;;;;;;4959489;28;20964;-82
2023/09/30 07:22:53;;;;;;;25.98;15.13;;;14.30;99.90;;;;;;4953592;28;20622;-81
2023/09/30 07:25:38;;;;;;;21.95;14.23;;;14.30;99.90;;;;;;4970660;28;20198;-82
2023/09/30 07:28:11;;;;;;;21.00;14.13;;;14.40;99.90;;;;;;4970633;28;20192;-82
2023/09/30 07:30:40;;;;;;;23.73;15.70;;;14.50;99.90;;;;;;4970195;28;20231;-82
2023/09/30 07:33:08;;;;;;;21.60;14.65;;;14.60;99.90;;;;;;4945423;28;20208;-82
2023/09/30 07:35:38;;;;;;;21.70;14.40;;;14.60;99.90;;;;;;4952744;28;20825;-82
2023/09/30 07:38:06;;;;;;;23.33;15.65;;;14.60;99.90;;;;;;4970274;28;20667;-82
2023/09/30 07:40:34;;;;;;;24.98;15.32;;;14.60;99.90;;;;;;4952950;28;20234;-80
2023/09/30 07:43:01;;;;;;;24.73;15.70;;;14.60;99.90;;;;;;4970251;28;20194;-81
2023/09/30 07:45:29;;;;;;;24.13;15.30;;;14.60;99.90;;;;;;4970121;28;20540;-83
2023/09/30 07:47:58;;;;;;;23.65;14.98;;;14.70;99.90;;;;;;4952585;28;20311;-83
2023/09/30 07:50:26;;;;;;;25.17;14.82;;;14.70;99.90;;;;;;4953396;28;20188;-83
2023/09/30 07:52:54;;;;;;;21.00;15.55;;;14.70;99.90;;;;;;4962948;28;20262;-83
2023/09/30 07:55:21;;;;;;;22.00;14.55;;;14.80;99.90;;;;;;4970025;28;20307;-82
2023/09/30 07:57:49;;;;;;;22.50;14.70;;;14.80;99.90;;;;;;4952393;28;20670;-83
2023/09/30 08:00:17;;;;;;;22.75;14.55;;;14.80;99.90;;;;;;4952605;28;20192;-82
2023/09/30 08:02:44;;;;;;;21.52;15.75;;;14.80;99.90;;;;;;4952982;28;20208;-82
2023/09/30 08:05:13;;;;;;;24.15;16.15;;;14.90;99.90;;;;;;4967063;28;20205;-82
2023/09/30 08:07:41;;;;;;;24.55;15.00;;;14.90;99.90;;;;;;4952413;28;20551;-82
2023/09/30 08:10:13;;;;;;;25.55;15.73;;;14.90;99.90;;;;;;4970248;28;20685;-82
2023/09/30 08:12:41;;;;;;;24.02;15.77;;;14.90;99.90;;;;;;4952131;28;20219;-82
2023/09/30 08:15:12;;;;;;;24.70;15.48;;;14.90;99.90;;;;;;4969586;28;20192;-82
2023/09/30 08:17:41;;;;;;;21.58;14.43;;;15.00;99.90;;;;;;4969642;28;20564;-82
2023/09/30 08:20:09;;;;;;;25.48;15.68;;;15.00;99.90;;;;;;4949693;29;20220;-83
2023/09/30 08:22:37;;;;;;;25.15;15.65;;;15.00;99.90;;;;;;4965502;28;20200;-83
2023/09/30 08:25:06;;;;;;;24.75;15.85;;;15.00;99.90;;;;;;4969777;28;20549;-82
2023/09/30 08:27:34;;;;;;;21.50;14.88;;;15.00;99.90;;;;;;4968263;28;20557;-82
2023/09/30 08:30:05;;;;;;;21.00;13.95;;;15.00;99.90;;;;;;4969655;28;20192;-82
2023/09/30 08:32:36;;;;;;;20.45;14.57;;;15.10;99.90;;;;;;4965427;28;20290;-81
2023/09/30 08:35:04;;;;;;;22.77;15.50;;;15.20;99.90;;;;;;4969858;28;20223;-81
2023/09/30 08:37:32;;;;;;;23.08;13.65;;;15.20;99.90;;;;;;4969661;28;20195;-81
2023/09/30 08:40:00;;;;;;;21.70;14.48;;;15.20;99.90;;;;;;4969244;28;20215;-81
2023/09/30 08:42:32;;;;;;;22.90;14.85;;;15.20;99.90;;;;;;4969447;28;20279;-82
2023/09/30 08:45:01;;;;;;;20.80;14.45;;;15.20;99.90;;;;;;4952141;28;20540;-82
2023/09/30 08:47:29;;;;;;;21.50;14.40;;;15.20;99.90;;;;;;4969834;28;20219;-81
2023/09/30 08:50:05;;;;;;;22.13;15.32;;;15.20;99.90;;;;;;4969137;28;20202;-82
2023/09/30 08:52:35;;;;;;;21.38;15.05;;;15.20;99.90;;;;;;4969217;28;20315;-82
2023/09/30 08:55:08;;;;;;;20.83;14.23;;;15.20;99.90;;;;;;4969489;28;20192;-82
2023/09/30 08:57:40;;;;;;;21.40;14.68;;;15.20;99.90;;;;;;4969219;28;20188;-83
2023/09/30 09:00:14;;;;;;;20.38;13.20;;;15.30;99.90;;;;;;4973082;28;20250;-82
2023/09/30 09:02:42;;;;;;;21.25;14.80;;;15.30;99.90;;;;;;4973437;28;20188;-82
2023/09/30 09:05:11;;;;;;;21.33;13.18;;;15.40;99.90;;;;;;4955483;28;20278;-83
2023/09/30 09:07:39;;;;;;;19.05;13.05;;;15.40;99.90;;;;;;4972935;28;20187;-81
2023/09/30 09:10:12;;;;;;;22.75;14.43;;;15.40;99.90;;;;;;4955982;28;20204;-81
2023/09/30 09:12:41;;;;;;;24.42;13.38;;;15.50;99.90;;;;;;4972981;28;20215;-82
2023/09/30 09:15:21;;;;;;;19.08;13.20;;;15.50;99.90;;;;;;4972982;28;20211;-82
2023/09/30 09:17:50;;;;;;;20.45;13.32;;;15.50;99.90;;;;;;4973069;28;20184;-82
2023/09/30 09:20:28;;;;;;;21.80;14.30;;;15.60;99.90;;;;;;4952536;29;20188;-82
2023/09/30 09:22:58;;;;;;;18.85;13.27;;;15.60;99.90;;;;;;4966381;28;20203;-81
2023/09/30 09:25:26;;;;;;;19.45;13.32;;;15.60;99.90;;;;;;4955213;28;20188;-83
2023/09/30 09:27:54;;;;;;;22.15;12.43;;;15.60;99.90;;;;;;4955080;28;20817;-81
2023/09/30 09:30:24;;;;;;;20.67;13.13;;;15.70;99.90;;;;;;4948043;29;20617;-82
2023/09/30 09:33:05;;;;;;;21.17;13.27;;;15.70;99.90;;;;;;4933245;29;20588;-82
2023/09/30 09:35:34;;;;;;;19.60;12.57;;;15.70;99.90;;;;;;4932767;29;20252;-81
2023/09/30 09:38:07;;;;;;;21.75;13.25;;;15.70;99.90;;;;;;4934330;29;20209;-82
2023/09/30 09:40:40;;;;;;;19.75;13.05;;;15.70;99.90;;;;;;4930191;29;20189;-83
2023/09/30 09:43:09;;;;;;;18.33;12.25;;;15.70;99.90;;;;;;4934195;29;20193;-81
2023/09/30 09:45:37;;;;;;;22.00;12.80;;;15.70;99.90;;;;;;4933966;29;20191;-83
2023/09/30 09:48:06;;;;;;;19.85;13.20;;;15.70;99.90;;;;;;4932409;29;20189;-83
2023/09/30 09:50:38;;;;;;;17.55;11.95;;;15.70;99.90;;;;;;4930295;29;20197;-81
2023/09/30 09:53:07;;;;;;;18.00;12.05;;;15.70;99.90;;;;;;4934312;29;20209;-82
2023/09/30 09:55:38;;;;;;;18.55;12.57;;;15.80;99.90;;;;;;4934189;29;20244;-82
2023/09/30 09:58:08;;;;;;;18.63;12.23;;;15.70;99.90;;;;;;4934107;29;20217;-81
2023/09/30 10:00:38;;;;;;;17.77;12.93;;;15.80;99.90;;;;;;4934504;29;20226;-83
2023/09/30 10:03:06;;;;;;;16.35;11.40;;;15.80;99.90;;;;;;4932578;29;20205;-81
2023/09/30 10:05:34;;;;;;;21.02;12.68;;;15.80;99.90;;;;;;4933640;29;20207;-82
2023/09/30 10:08:09;;;;;;;19.30;11.48;;;15.80;99.90;;;;;;4930729;29;20251;-82
2023/09/30 10:10:38;;;;;;;19.40;12.18;;;15.90;99.90;;;;;;4932802;29;20240;-83
2023/09/30 10:13:06;;;;;;;20.65;12.13;;;15.90;99.90;;;;;;4933105;29;20732;-82
2023/09/30 10:15:35;;;;;;;17.42;11.55;;;15.80;99.90;;;;;;4933359;29;20220;-81
2023/09/30 10:18:11;;;;;;;17.77;11.02;;;15.90;99.90;;;;;;4933252;29;20189;-83
2023/09/30 10:20:48;;;;;;;17.88;11.75;;;15.90;99.90;;;;;;4933357;29;20217;-82
2023/09/30 10:23:35;;;;;;;18.13;11.90;;;15.90;99.90;;;;;;4932419;29;20276;-80
2023/09/30 10:26:13;;;;;;;17.90;11.82;;;15.90;99.90;;;;;;4927203;29;20212;-81
2023/09/30 10:28:44;;;;;;;17.05;12.07;;;15.80;99.90;;;;;;4933253;29;20558;-81
2023/09/30 10:31:21;;;;;;;18.60;11.90;;;15.90;99.90;;;;;;4954093;28;20223;-81
2023/09/30 10:34:01;;;;;;;16.17;11.77;;;15.90;99.90;;;;;;4971157;28;20223;-80
2023/09/30 10:36:33;;;;;;;16.20;11.73;;;15.90;99.90;;;;;;4971496;28;20239;-81
2023/09/30 10:39:02;;;;;;;18.35;11.25;;;16.00;99.90;;;;;;4971165;28;20219;-82
2023/09/30 10:41:50;;;;;;;22.98;12.23;;;16.00;99.90;;;;;;4971297;28;20790;-80
2023/09/30 10:44:30;;;;;;;19.83;11.50;;;16.00;99.90;;;;;;4971377;28;20211;-81
2023/09/30 10:46:58;;;;;;;18.65;11.95;;;16.00;99.90;;;;;;4937316;28;20196;-81
2023/09/30 10:49:26;;;;;;;15.73;11.13;;;16.10;99.90;;;;;;4962608;28;20194;-81
2023/09/30 10:51:56;;;;;;;17.42;10.98;;;16.10;99.90;;;;;;4970534;28;20196;-80
2023/09/30 10:54:31;;;;;;;18.83;11.05;;;16.10;99.90;;;;;;4970423;28;20620;-81
2023/09/30 10:57:00;;;;;;;15.85;11.25;;;16.10;99.90;;;;;;4968963;28;20184;-81
2023/09/30 10:59:31;;;;;;;22.58;11.98;;;16.10;99.90;;;;;;4970556;28;20220;-80
2023/09/30 11:01:59;;;;;;;18.58;11.88;;;16.10;99.90;;;;;;4970152;28;20228;-80
2023/09/30 11:04:28;;;;;;;17.17;10.32;;;16.10;99.90;;;;;;4968379;28;20217;-81
2023/09/30 11:06:57;;;;;;;16.55;10.57;;;16.10;99.90;;;;;;4970191;28;20714;-82
2023/09/30 11:09:26;;;;;;;15.10;10.80;;;16.10;99.90;;;;;;4971043;28;20192;-81
2023/09/30 11:11:54;;;;;;;22.23;12.50;;;16.10;99.90;;;;;;4969023;28;20629;-80
2023/09/30 11:14:27;;;;;;;20.42;13.20;;;16.20;99.90;;;;;;4968656;28;20204;-81
2023/09/30 11:17:01;;;;;;;22.83;16.20;;;16.10;99.90;;;;;;4970146;28;20194;-81
2023/09/30 11:19:50;;;;;;;23.80;17.70;;;16.10;99.90;;;;;;4966009;28;20194;-81
2023/09/30 11:22:18;;;;;;;26.92;18.55;;;16.00;99.90;;;;;;4966987;28;20276;-81
2023/09/30 11:24:46;;;;;;;24.08;17.27;;;16.00;99.90;;;;;;4967755;28;20192;-80
2023/09/30 11:27:24;;;;;;;26.52;17.70;;;15.90;99.90;;;;;;4967043;28;20200;-80
2023/09/30 11:29:52;;;;;;;31.83;19.35;;;15.90;99.90;;;;;;4969398;28;20212;-80
2023/09/30 11:32:27;;;;;;;27.02;18.23;;;15.90;99.90;;;;;;4952405;28;20203;-81
2023/09/30 11:34:55;;;;;;;28.20;19.27;;;15.90;99.90;;;;;;4965149;28;20235;-81
2023/09/30 11:37:31;;;;;;;28.02;17.98;;;15.90;99.90;;;;;;4951965;28;20195;-81
2023/09/30 11:40:14;;;;;;;26.58;18.67;;;15.80;99.90;;;;;;4970022;28;20677;-80
2023/09/30 11:42:42;;;;;;;27.65;18.45;;;15.80;99.90;;;;;;4967587;28;20190;-81
2023/09/30 11:45:20;;;;;;;29.23;19.80;;;15.80;99.90;;;;;;4969229;28;20188;-81
2023/09/30 11:47:48;;;;;;;27.52;19.60;;;15.80;99.90;;;;;;4970237;28;20192;-81
2023/09/30 11:50:16;;;;;;;30.90;21.08;;;15.80;99.90;;;;;;4969855;28;20195;-81
2023/09/30 11:52:47;;;;;;;30.20;21.42;;;15.70;99.90;;;;;;4969887;28;20188;-80
2023/09/30 11:55:16;;;;;;;27.42;21.98;;;15.70;99.90;;;;;;4969791;28;20219;-81
2023/09/30 11:57:45;;;;;;;29.48;22.23;;;15.70;99.90;;;;;;4969997;28;20666;-81
2023/09/30 12:00:14;;;;;;;33.65;23.58;;;15.60;99.90;;;;;;4969966;28;20192;-81
2023/09/30 12:02:41;;;;;;;32.70;23.48;;;15.60;99.90;;;;;;4969810;28;20615;-82
2023/09/30 12:05:11;;;;;;;31.25;21.90;;;15.60;99.90;;;;;;4969856;28;20243;-81
2023/09/30 12:07:41;;;;;;;31.60;24.40;;;15.60;99.90;;;;;;4961704;28;20247;-81
2023/09/30 12:10:10;;;;;;;34.80;24.42;;;15.50;99.90;;;;;;4969962;28;20215;-80
2023/09/30 12:12:39;;;;;;;33.78;24.40;;;15.50;99.90;;;;;;4969526;28;20195;-82
2023/09/30 12:15:09;;;;;;;32.42;23.45;;;15.50;99.90;;;;;;4960625;28;20752;-81
2023/09/30 12:17:38;;;;;;;29.88;21.98;;;15.50;99.90;;;;;;4969676;28;20188;-83
2023/09/30 12:20:07;;;;;;;28.35;20.52;;;15.50;99.90;;;;;;4970420;28;20318;-81
2023/09/30 12:22:37;;;;;;;27.73;18.13;;;15.50;99.90;;;;;;4969509;28;20644;-81
2023/09/30 12:25:08;;;;;;;27.40;17.73;;;15.50;99.90;;;;;;4969513;28;20195;-81
2023/09/30 12:27:35;;;;;;;22.15;15.27;;;15.60;99.90;;;;;;4969573;28;20188;-82
2023/09/30 12:30:04;;;;;;;21.73;13.93;;;15.50;99.90;;;;;;4969110;28;20192;-82
2023/09/30 12:32:31;;;;;;;19.35;13.98;;;15.50;99.90;;;;;;4969209;28;20188;-80
2023/09/30 12:34:59;;;;;;;21.52;13.38;;;15.50;99.90;;;;;;4969107;28;20790;-81
2023/09/30 12:37:27;;;;;;;17.17;12.40;;;15.50;99.90;;;;;;4969487;28;20244;-81
2023/09/30 12:39:54;;;;;;;16.10;11.48;;;15.60;99.90;;;;;;4969366;28;20211;-80